sensor_id;sensor_type;location;lat;lon;timestamp;P1;durP1;ratioP1;P2;durP2;ratioP2
75465;SDS011;64049;46.290;44.240;2023-03-16T00:02:01;164.10;;;21.75;;
75465;SDS011;64049;46.290;44.240;2023-03-16T00:04:27;164.10;;;23.77;;
75465;SDS011;64049;46.290;44.240;2023-03-16T00:06:55;180.50;;;24.50;;
75465;SDS011;64049;46.290;44.240;2023-03-16T00:09:21;188.02;;;21.80;;
75465;SDS011;64049;46.290;44.240;2023-03-16T00:11:47;151.02;;;18.23;;
75465;SDS011;64049;46.290;44.240;2023-03-16T00:14:12;169.23;;;20.80;;
75465;SDS011;64049;46.290;44.240;2023-03-16T00:16:38;168.10;;;21.70;;
75465;SDS011;64049;46.290;44.240;2023-03-16T00:19:04;151.20;;;21.63;;
75465;SDS011;64049;46.290;44.240;2023-03-16T00:21:30;194.38;;;21.50;;
75465;SDS011;64049;46.290;44.240;2023-03-16T00:23:59;114.32;;;16.63;;
75465;SDS011;64049;46.290;44.240;2023-03-16T00:26:27;166.20;;;19.67;;
75465;SDS011;64049;46.290;44.240;2023-03-16T00:28:54;182.95;;;19.52;;
75465;SDS011;64049;46.290;44.240;2023-03-16T00:31:23;148.10;;;16.65;;
75465;SDS011;64049;46.290;44.240;2023-03-16T00:33:51;142.30;;;16.15;;
75465;SDS011;64049;46.290;44.240;2023-03-16T00:36:19;137.10;;;15.27;;
75465;SDS011;64049;46.290;44.240;2023-03-16T00:38:46;157.55;;;18.80;;
75465;SDS011;64049;46.290;44.240;2023-03-16T00:41:14;153.75;;;21.30;;
75465;SDS011;64049;46.290;44.240;2023-03-16T00:43:40;148.75;;;20.65;;
75465;SDS011;64049;46.290;44.240;2023-03-16T00:46:12;153.20;;;17.60;;
75465;SDS011;64049;46.290;44.240;2023-03-16T00:48:42;131.70;;;19.15;;
75465;SDS011;64049;46.290;44.240;2023-03-16T00:51:10;115.15;;;16.25;;
75465;SDS011;64049;46.290;44.240;2023-03-16T00:53:40;144.75;;;16.63;;
75465;SDS011;64049;46.290;44.240;2023-03-16T00:56:08;148.40;;;16.90;;
75465;SDS011;64049;46.290;44.240;2023-03-16T00:58:36;110.53;;;16.23;;
75465;SDS011;64049;46.290;44.240;2023-03-16T01:01:05;122.55;;;16.02;;
75465;SDS011;64049;46.290;44.240;2023-03-16T01:03:33;118.20;;;16.27;;
75465;SDS011;64049;46.290;44.240;2023-03-16T01:06:08;119.25;;;15.00;;
75465;SDS011;64049;46.290;44.240;2023-03-16T01:08:35;97.85;;;15.80;;
75465;SDS011;64049;46.290;44.240;2023-03-16T01:11:06;105.55;;;15.18;;
75465;SDS011;64049;46.290;44.240;2023-03-16T01:13:40;96.70;;;13.00;;
75465;SDS011;64049;46.290;44.240;2023-03-16T01:16:07;115.57;;;16.90;;
75465;SDS011;64049;46.290;44.240;2023-03-16T01:18:33;109.20;;;16.85;;
75465;SDS011;64049;46.290;44.240;2023-03-16T01:21:03;133.55;;;18.67;;
75465;SDS011;64049;46.290;44.240;2023-03-16T01:23:32;96.35;;;14.25;;
75465;SDS011;64049;46.290;44.240;2023-03-16T01:25:59;137.43;;;17.98;;
75465;SDS011;64049;46.290;44.240;2023-03-16T01:28:27;98.05;;;12.00;;
75465;SDS011;64049;46.290;44.240;2023-03-16T01:31:04;151.95;;;19.40;;
75465;SDS011;64049;46.290;44.240;2023-03-16T01:33:33;134.93;;;15.57;;
75465;SDS011;64049;46.290;44.240;2023-03-16T01:36:01;132.63;;;17.02;;
75465;SDS011;64049;46.290;44.240;2023-03-16T01:38:36;116.10;;;12.48;;
75465;SDS011;64049;46.290;44.240;2023-03-16T01:41:03;159.20;;;20.08;;
75465;SDS011;64049;46.290;44.240;2023-03-16T01:43:29;111.30;;;15.70;;
75465;SDS011;64049;46.290;44.240;2023-03-16T01:51:15;108.50;;;15.90;;
75465;SDS011;64049;46.290;44.240;2023-03-16T01:53:46;97.47;;;14.02;;
75465;SDS011;64049;46.290;44.240;2023-03-16T01:56:15;113.18;;;14.32;;
75465;SDS011;64049;46.290;44.240;2023-03-16T01:58:49;90.28;;;12.77;;
75465;SDS011;64049;46.290;44.240;2023-03-16T02:01:17;89.97;;;12.43;;
75465;SDS011;64049;46.290;44.240;2023-03-16T02:03:44;110.72;;;13.30;;
75465;SDS011;64049;46.290;44.240;2023-03-16T02:06:18;117.78;;;14.90;;
75465;SDS011;64049;46.290;44.240;2023-03-16T02:08:51;80.63;;;12.68;;
75465;SDS011;64049;46.290;44.240;2023-03-16T02:11:20;82.40;;;10.73;;
75465;SDS011;64049;46.290;44.240;2023-03-16T02:14:05;87.30;;;14.63;;
75465;SDS011;64049;46.290;44.240;2023-03-16T02:16:34;77.97;;;13.63;;
75465;SDS011;64049;46.290;44.240;2023-03-16T02:19:01;72.75;;;12.90;;
75465;SDS011;64049;46.290;44.240;2023-03-16T02:21:40;69.90;;;11.98;;
75465;SDS011;64049;46.290;44.240;2023-03-16T02:24:29;63.80;;;10.00;;
75465;SDS011;64049;46.290;44.240;2023-03-16T02:27:00;91.88;;;12.52;;
75465;SDS011;64049;46.290;44.240;2023-03-16T02:32:19;71.53;;;10.05;;
75465;SDS011;64049;46.290;44.240;2023-03-16T02:34:46;105.47;;;14.05;;
75465;SDS011;64049;46.290;44.240;2023-03-16T02:37:12;104.30;;;15.38;;
75465;SDS011;64049;46.290;44.240;2023-03-16T02:39:39;85.32;;;11.60;;
75465;SDS011;64049;46.290;44.240;2023-03-16T02:42:11;40.40;;;6.85;;
75465;SDS011;64049;46.290;44.240;2023-03-16T02:44:40;63.70;;;10.95;;
75465;SDS011;64049;46.290;44.240;2023-03-16T02:47:13;72.55;;;12.05;;
75465;SDS011;64049;46.290;44.240;2023-03-16T02:49:47;47.17;;;10.18;;
75465;SDS011;64049;46.290;44.240;2023-03-16T02:52:14;38.35;;;7.03;;
75465;SDS011;64049;46.290;44.240;2023-03-16T02:54:40;57.85;;;9.70;;
75465;SDS011;64049;46.290;44.240;2023-03-16T02:57:07;65.68;;;11.38;;
75465;SDS011;64049;46.290;44.240;2023-03-16T02:59:34;57.40;;;9.30;;
75465;SDS011;64049;46.290;44.240;2023-03-16T03:02:01;73.82;;;9.82;;
75465;SDS011;64049;46.290;44.240;2023-03-16T03:04:26;76.63;;;11.77;;
75465;SDS011;64049;46.290;44.240;2023-03-16T03:06:52;85.47;;;12.63;;
75465;SDS011;64049;46.290;44.240;2023-03-16T03:09:18;64.28;;;11.00;;
75465;SDS011;64049;46.290;44.240;2023-03-16T03:11:48;80.57;;;10.30;;
75465;SDS011;64049;46.290;44.240;2023-03-16T03:14:15;49.03;;;9.13;;
75465;SDS011;64049;46.290;44.240;2023-03-16T03:16:42;62.75;;;11.10;;
75465;SDS011;64049;46.290;44.240;2023-03-16T03:19:12;50.55;;;8.85;;
75465;SDS011;64049;46.290;44.240;2023-03-16T03:21:39;41.05;;;5.35;;
75465;SDS011;64049;46.290;44.240;2023-03-16T03:24:06;44.97;;;9.65;;
75465;SDS011;64049;46.290;44.240;2023-03-16T03:26:32;58.17;;;8.02;;
75465;SDS011;64049;46.290;44.240;2023-03-16T03:28:59;54.15;;;8.35;;
75465;SDS011;64049;46.290;44.240;2023-03-16T03:31:25;31.98;;;6.32;;
75465;SDS011;64049;46.290;44.240;2023-03-16T03:33:51;58.08;;;8.20;;
75465;SDS011;64049;46.290;44.240;2023-03-16T03:36:20;37.45;;;6.47;;
75465;SDS011;64049;46.290;44.240;2023-03-16T03:38:47;49.38;;;9.02;;
75465;SDS011;64049;46.290;44.240;2023-03-16T03:41:15;50.58;;;8.68;;
75465;SDS011;64049;46.290;44.240;2023-03-16T03:43:41;24.85;;;4.68;;
75465;SDS011;64049;46.290;44.240;2023-03-16T03:46:13;43.90;;;7.53;;
75465;SDS011;64049;46.290;44.240;2023-03-16T03:48:39;40.15;;;6.13;;
75465;SDS011;64049;46.290;44.240;2023-03-16T03:51:05;41.20;;;6.97;;
75465;SDS011;64049;46.290;44.240;2023-03-16T03:53:54;48.67;;;7.82;;
75465;SDS011;64049;46.290;44.240;2023-03-16T03:56:38;30.48;;;4.75;;
75465;SDS011;64049;46.290;44.240;2023-03-16T03:59:10;33.42;;;5.35;;
75465;SDS011;64049;46.290;44.240;2023-03-16T04:02:02;44.65;;;8.65;;
75465;SDS011;64049;46.290;44.240;2023-03-16T04:04:38;49.95;;;7.25;;
75465;SDS011;64049;46.290;44.240;2023-03-16T04:07:07;38.88;;;5.47;;
75465;SDS011;64049;46.290;44.240;2023-03-16T04:09:33;32.80;;;7.25;;
75465;SDS011;64049;46.290;44.240;2023-03-16T04:12:01;44.50;;;7.40;;
75465;SDS011;64049;46.290;44.240;2023-03-16T04:14:29;25.05;;;4.25;;
75465;SDS011;64049;46.290;44.240;2023-03-16T04:16:55;43.38;;;6.72;;
75465;SDS011;64049;46.290;44.240;2023-03-16T04:19:22;36.03;;;7.40;;
75465;SDS011;64049;46.290;44.240;2023-03-16T04:21:50;43.47;;;5.53;;
75465;SDS011;64049;46.290;44.240;2023-03-16T04:24:17;29.73;;;3.97;;
75465;SDS011;64049;46.290;44.240;2023-03-16T04:26:44;43.92;;;7.30;;
75465;SDS011;64049;46.290;44.240;2023-03-16T04:29:11;18.25;;;5.05;;
75465;SDS011;64049;46.290;44.240;2023-03-16T04:31:39;25.58;;;5.60;;
75465;SDS011;64049;46.290;44.240;2023-03-16T04:34:07;28.73;;;6.18;;
75465;SDS011;64049;46.290;44.240;2023-03-16T04:36:33;41.20;;;5.93;;
75465;SDS011;64049;46.290;44.240;2023-03-16T04:39:00;36.67;;;7.95;;
75465;SDS011;64049;46.290;44.240;2023-03-16T04:41:27;32.58;;;6.65;;
75465;SDS011;64049;46.290;44.240;2023-03-16T04:44:10;28.00;;;7.13;;
75465;SDS011;64049;46.290;44.240;2023-03-16T04:46:36;27.08;;;6.82;;
75465;SDS011;64049;46.290;44.240;2023-03-16T04:49:05;30.52;;;7.13;;
75465;SDS011;64049;46.290;44.240;2023-03-16T04:51:35;33.67;;;6.25;;
75465;SDS011;64049;46.290;44.240;2023-03-16T04:54:06;32.10;;;6.28;;
75465;SDS011;64049;46.290;44.240;2023-03-16T04:56:34;37.45;;;7.90;;
75465;SDS011;64049;46.290;44.240;2023-03-16T04:59:04;30.00;;;7.65;;
75465;SDS011;64049;46.290;44.240;2023-03-16T05:01:40;24.75;;;7.15;;
75465;SDS011;64049;46.290;44.240;2023-03-16T05:04:08;37.97;;;7.03;;
75465;SDS011;64049;46.290;44.240;2023-03-16T05:06:36;24.13;;;5.63;;
75465;SDS011;64049;46.290;44.240;2023-03-16T05:09:02;31.95;;;5.18;;
75465;SDS011;64049;46.290;44.240;2023-03-16T05:11:34;19.27;;;4.93;;
75465;SDS011;64049;46.290;44.240;2023-03-16T05:14:03;29.38;;;6.30;;
75465;SDS011;64049;46.290;44.240;2023-03-16T05:16:31;19.42;;;5.40;;
75465;SDS011;64049;46.290;44.240;2023-03-16T05:18:58;21.85;;;6.82;;
75465;SDS011;64049;46.290;44.240;2023-03-16T05:21:28;20.95;;;5.72;;
75465;SDS011;64049;46.290;44.240;2023-03-16T05:24:06;23.95;;;5.55;;
75465;SDS011;64049;46.290;44.240;2023-03-16T05:26:33;20.02;;;5.40;;
75465;SDS011;64049;46.290;44.240;2023-03-16T05:29:00;19.95;;;4.95;;
75465;SDS011;64049;46.290;44.240;2023-03-16T05:31:28;16.60;;;4.75;;
75465;SDS011;64049;46.290;44.240;2023-03-16T05:34:00;23.23;;;5.00;;
75465;SDS011;64049;46.290;44.240;2023-03-16T05:36:26;11.52;;;3.20;;
75465;SDS011;64049;46.290;44.240;2023-03-16T05:38:59;18.90;;;4.00;;
75465;SDS011;64049;46.290;44.240;2023-03-16T05:41:30;23.00;;;7.32;;
75465;SDS011;64049;46.290;44.240;2023-03-16T05:44:04;15.63;;;4.43;;
75465;SDS011;64049;46.290;44.240;2023-03-16T05:46:45;12.35;;;3.72;;
75465;SDS011;64049;46.290;44.240;2023-03-16T05:49:11;14.73;;;4.28;;
75465;SDS011;64049;46.290;44.240;2023-03-16T05:51:37;20.10;;;5.28;;
75465;SDS011;64049;46.290;44.240;2023-03-16T05:54:05;14.85;;;3.40;;
75465;SDS011;64049;46.290;44.240;2023-03-16T05:56:37;18.33;;;4.45;;
75465;SDS011;64049;46.290;44.240;2023-03-16T05:59:03;13.13;;;4.20;;
75465;SDS011;64049;46.290;44.240;2023-03-16T06:01:29;21.67;;;4.82;;
75465;SDS011;64049;46.290;44.240;2023-03-16T06:03:55;13.30;;;3.63;;
75465;SDS011;64049;46.290;44.240;2023-03-16T06:06:24;13.93;;;3.28;;
75465;SDS011;64049;46.290;44.240;2023-03-16T06:09:02;20.23;;;3.28;;
75465;SDS011;64049;46.290;44.240;2023-03-16T06:11:29;14.35;;;4.18;;
75465;SDS011;64049;46.290;44.240;2023-03-16T06:13:58;13.07;;;3.72;;
75465;SDS011;64049;46.290;44.240;2023-03-16T06:16:25;10.38;;;3.10;;
75465;SDS011;64049;46.290;44.240;2023-03-16T06:18:51;28.10;;;4.78;;
75465;SDS011;64049;46.290;44.240;2023-03-16T06:21:17;19.08;;;3.83;;
75465;SDS011;64049;46.290;44.240;2023-03-16T06:23:46;14.55;;;3.20;;
75465;SDS011;64049;46.290;44.240;2023-03-16T06:26:13;12.13;;;3.83;;
75465;SDS011;64049;46.290;44.240;2023-03-16T06:31:07;9.55;;;3.08;;
75465;SDS011;64049;46.290;44.240;2023-03-16T06:33:34;18.73;;;3.30;;
75465;SDS011;64049;46.290;44.240;2023-03-16T06:36:01;24.00;;;3.30;;
75465;SDS011;64049;46.290;44.240;2023-03-16T06:38:40;15.25;;;5.15;;
75465;SDS011;64049;46.290;44.240;2023-03-16T06:41:12;14.48;;;4.72;;
75465;SDS011;64049;46.290;44.240;2023-03-16T06:43:38;12.65;;;3.60;;
75465;SDS011;64049;46.290;44.240;2023-03-16T06:46:04;16.20;;;3.30;;
75465;SDS011;64049;46.290;44.240;2023-03-16T06:48:30;6.20;;;2.35;;
75465;SDS011;64049;46.290;44.240;2023-03-16T06:50:56;20.77;;;4.63;;
75465;SDS011;64049;46.290;44.240;2023-03-16T06:53:27;15.52;;;4.13;;
75465;SDS011;64049;46.290;44.240;2023-03-16T06:55:54;16.67;;;4.18;;
75465;SDS011;64049;46.290;44.240;2023-03-16T06:58:21;23.63;;;3.90;;
75465;SDS011;64049;46.290;44.240;2023-03-16T07:00:47;9.18;;;3.47;;
75465;SDS011;64049;46.290;44.240;2023-03-16T07:03:12;14.15;;;2.92;;
75465;SDS011;64049;46.290;44.240;2023-03-16T07:05:45;14.85;;;3.65;;
75465;SDS011;64049;46.290;44.240;2023-03-16T07:08:11;12.95;;;3.03;;
75465;SDS011;64049;46.290;44.240;2023-03-16T07:10:39;11.25;;;4.00;;
75465;SDS011;64049;46.290;44.240;2023-03-16T07:13:06;10.75;;;2.80;;
75465;SDS011;64049;46.290;44.240;2023-03-16T07:15:32;15.93;;;4.22;;
75465;SDS011;64049;46.290;44.240;2023-03-16T07:17:59;10.90;;;3.10;;
75465;SDS011;64049;46.290;44.240;2023-03-16T07:20:25;8.35;;;3.08;;
75465;SDS011;64049;46.290;44.240;2023-03-16T07:22:53;11.15;;;3.38;;
75465;SDS011;64049;46.290;44.240;2023-03-16T07:25:19;12.23;;;3.00;;
75465;SDS011;64049;46.290;44.240;2023-03-16T07:27:50;14.13;;;2.88;;
75465;SDS011;64049;46.290;44.240;2023-03-16T07:30:22;14.02;;;3.05;;
75465;SDS011;64049;46.290;44.240;2023-03-16T07:35:18;13.93;;;3.72;;
75465;SDS011;64049;46.290;44.240;2023-03-16T07:37:46;14.88;;;3.00;;
75465;SDS011;64049;46.290;44.240;2023-03-16T07:40:12;18.48;;;3.72;;
75465;SDS011;64049;46.290;44.240;2023-03-16T07:42:39;15.52;;;2.97;;
75465;SDS011;64049;46.290;44.240;2023-03-16T07:45:12;13.18;;;3.03;;
75465;SDS011;64049;46.290;44.240;2023-03-16T07:47:40;11.68;;;3.05;;
75465;SDS011;64049;46.290;44.240;2023-03-16T07:50:34;14.50;;;2.78;;
75465;SDS011;64049;46.290;44.240;2023-03-16T07:53:00;15.75;;;3.58;;
75465;SDS011;64049;46.290;44.240;2023-03-16T07:55:26;14.88;;;3.13;;
75465;SDS011;64049;46.290;44.240;2023-03-16T07:57:53;12.25;;;3.67;;
75465;SDS011;64049;46.290;44.240;2023-03-16T08:00:26;18.00;;;3.45;;
75465;SDS011;64049;46.290;44.240;2023-03-16T08:02:52;13.07;;;2.63;;
75465;SDS011;64049;46.290;44.240;2023-03-16T08:05:20;11.32;;;2.78;;
75465;SDS011;64049;46.290;44.240;2023-03-16T08:07:52;27.80;;;3.75;;
75465;SDS011;64049;46.290;44.240;2023-03-16T08:10:24;12.88;;;3.60;;
75465;SDS011;64049;46.290;44.240;2023-03-16T08:13:01;16.23;;;4.07;;
75465;SDS011;64049;46.290;44.240;2023-03-16T08:15:30;23.70;;;4.00;;
75465;SDS011;64049;46.290;44.240;2023-03-16T08:18:05;23.92;;;4.20;;
75465;SDS011;64049;46.290;44.240;2023-03-16T08:20:32;21.45;;;3.33;;
75465;SDS011;64049;46.290;44.240;2023-03-16T08:22:58;21.25;;;4.03;;
75465;SDS011;64049;46.290;44.240;2023-03-16T08:25:29;26.92;;;5.43;;
75465;SDS011;64049;46.290;44.240;2023-03-16T08:28:02;21.23;;;3.28;;
75465;SDS011;64049;46.290;44.240;2023-03-16T08:30:29;22.30;;;4.25;;
75465;SDS011;64049;46.290;44.240;2023-03-16T08:33:11;20.73;;;3.83;;
75465;SDS011;64049;46.290;44.240;2023-03-16T08:35:39;15.57;;;2.35;;
75465;SDS011;64049;46.290;44.240;2023-03-16T08:38:08;15.90;;;2.90;;
75465;SDS011;64049;46.290;44.240;2023-03-16T08:40:34;20.55;;;4.05;;
75465;SDS011;64049;46.290;44.240;2023-03-16T08:43:00;14.77;;;3.15;;
75465;SDS011;64049;46.290;44.240;2023-03-16T08:45:27;23.20;;;3.20;;
75465;SDS011;64049;46.290;44.240;2023-03-16T08:47:53;23.65;;;3.40;;
75465;SDS011;64049;46.290;44.240;2023-03-16T08:50:19;28.75;;;4.13;;
75465;SDS011;64049;46.290;44.240;2023-03-16T08:52:46;16.08;;;3.20;;
75465;SDS011;64049;46.290;44.240;2023-03-16T08:55:13;24.90;;;4.47;;
75465;SDS011;64049;46.290;44.240;2023-03-16T08:57:40;29.52;;;4.03;;
75465;SDS011;64049;46.290;44.240;2023-03-16T09:00:09;27.10;;;4.63;;
75465;SDS011;64049;46.290;44.240;2023-03-16T09:02:42;32.42;;;3.72;;
75465;SDS011;64049;46.290;44.240;2023-03-16T09:05:09;19.88;;;3.63;;
75465;SDS011;64049;46.290;44.240;2023-03-16T09:07:37;29.75;;;4.30;;
75465;SDS011;64049;46.290;44.240;2023-03-16T09:10:06;31.25;;;4.78;;
75465;SDS011;64049;46.290;44.240;2023-03-16T09:12:34;32.35;;;5.57;;
75465;SDS011;64049;46.290;44.240;2023-03-16T09:17:28;26.92;;;5.45;;
75465;SDS011;64049;46.290;44.240;2023-03-16T09:19:54;21.98;;;3.35;;
75465;SDS011;64049;46.290;44.240;2023-03-16T09:22:20;36.42;;;4.60;;
75465;SDS011;64049;46.290;44.240;2023-03-16T09:24:46;28.23;;;4.68;;
75465;SDS011;64049;46.290;44.240;2023-03-16T09:27:13;31.88;;;4.05;;
75465;SDS011;64049;46.290;44.240;2023-03-16T09:29:40;40.55;;;5.90;;
75465;SDS011;64049;46.290;44.240;2023-03-16T09:32:07;35.75;;;5.28;;
75465;SDS011;64049;46.290;44.240;2023-03-16T09:34:34;28.05;;;4.53;;
75465;SDS011;64049;46.290;44.240;2023-03-16T09:36:59;45.40;;;6.55;;
75465;SDS011;64049;46.290;44.240;2023-03-16T09:39:25;35.25;;;5.40;;
75465;SDS011;64049;46.290;44.240;2023-03-16T09:42:34;27.52;;;5.05;;
75465;SDS011;64049;46.290;44.240;2023-03-16T09:44:53;35.13;;;6.82;;
75465;SDS011;64049;46.290;44.240;2023-03-16T09:47:30;24.80;;;4.45;;
75465;SDS011;64049;46.290;44.240;2023-03-16T09:49:59;25.00;;;4.47;;
75465;SDS011;64049;46.290;44.240;2023-03-16T09:55:34;47.28;;;6.20;;
75465;SDS011;64049;46.290;44.240;2023-03-16T09:58:03;42.10;;;5.93;;
75465;SDS011;64049;46.290;44.240;2023-03-16T10:00:35;39.90;;;4.85;;
75465;SDS011;64049;46.290;44.240;2023-03-16T10:05:41;38.92;;;6.65;;
75465;SDS011;64049;46.290;44.240;2023-03-16T10:16:31;32.35;;;6.07;;
75465;SDS011;64049;46.290;44.240;2023-03-16T10:19:13;39.35;;;5.22;;
75465;SDS011;64049;46.290;44.240;2023-03-16T10:22:02;34.50;;;5.90;;
75465;SDS011;64049;46.290;44.240;2023-03-16T10:27:39;40.20;;;5.68;;
75465;SDS011;64049;46.290;44.240;2023-03-16T10:30:26;35.15;;;5.57;;
75465;SDS011;64049;46.290;44.240;2023-03-16T10:32:53;36.88;;;6.85;;
75465;SDS011;64049;46.290;44.240;2023-03-16T10:35:26;43.25;;;7.30;;
75465;SDS011;64049;46.290;44.240;2023-03-16T10:38:07;35.25;;;5.55;;
75465;SDS011;64049;46.290;44.240;2023-03-16T10:40:37;48.25;;;6.25;;
75465;SDS011;64049;46.290;44.240;2023-03-16T10:43:05;48.10;;;6.07;;
75465;SDS011;64049;46.290;44.240;2023-03-16T10:45:41;44.33;;;7.60;;
75465;SDS011;64049;46.290;44.240;2023-03-16T10:48:11;52.25;;;6.95;;
75465;SDS011;64049;46.290;44.240;2023-03-16T10:50:40;39.97;;;5.28;;
75465;SDS011;64049;46.290;44.240;2023-03-16T10:53:19;48.90;;;6.60;;
75465;SDS011;64049;46.290;44.240;2023-03-16T10:55:55;56.42;;;7.90;;
75465;SDS011;64049;46.290;44.240;2023-03-16T10:58:30;45.67;;;6.57;;
75465;SDS011;64049;46.290;44.240;2023-03-16T11:00:59;48.17;;;6.07;;
75465;SDS011;64049;46.290;44.240;2023-03-16T11:03:29;44.67;;;6.90;;
75465;SDS011;64049;46.290;44.240;2023-03-16T11:06:04;54.35;;;7.10;;
75465;SDS011;64049;46.290;44.240;2023-03-16T11:08:33;47.55;;;6.55;;
75465;SDS011;64049;46.290;44.240;2023-03-16T11:13:42;50.35;;;5.82;;
75465;SDS011;64049;46.290;44.240;2023-03-16T11:16:23;44.92;;;6.88;;
75465;SDS011;64049;46.290;44.240;2023-03-16T11:18:59;54.92;;;7.55;;
75465;SDS011;64049;46.290;44.240;2023-03-16T11:21:36;56.25;;;7.47;;
75465;SDS011;64049;46.290;44.240;2023-03-16T11:24:17;42.25;;;5.05;;
75465;SDS011;64049;46.290;44.240;2023-03-16T11:27:10;45.90;;;5.53;;
75465;SDS011;64049;46.290;44.240;2023-03-16T11:32:15;49.25;;;7.05;;
75465;SDS011;64049;46.290;44.240;2023-03-16T11:34:45;42.47;;;5.78;;
75465;SDS011;64049;46.290;44.240;2023-03-16T11:40:07;48.60;;;7.65;;
75465;SDS011;64049;46.290;44.240;2023-03-16T11:42:47;50.92;;;9.00;;
75465;SDS011;64049;46.290;44.240;2023-03-16T12:07:00;56.65;;;9.07;;
75465;SDS011;64049;46.290;44.240;2023-03-16T12:12:32;33.47;;;5.43;;
75465;SDS011;64049;46.290;44.240;2023-03-16T12:15:31;59.53;;;8.48;;
75465;SDS011;64049;46.290;44.240;2023-03-16T12:18:29;43.88;;;6.43;;
75465;SDS011;64049;46.290;44.240;2023-03-16T12:21:33;52.22;;;9.43;;
75465;SDS011;64049;46.290;44.240;2023-03-16T12:24:05;82.35;;;10.20;;
75465;SDS011;64049;46.290;44.240;2023-03-16T12:26:44;66.72;;;8.98;;
75465;SDS011;64049;46.290;44.240;2023-03-16T12:29:26;67.93;;;9.35;;
75465;SDS011;64049;46.290;44.240;2023-03-16T12:32:13;64.72;;;10.45;;
75465;SDS011;64049;46.290;44.240;2023-03-16T12:35:04;54.97;;;6.47;;
75465;SDS011;64049;46.290;44.240;2023-03-16T12:45:34;56.30;;;7.82;;
75465;SDS011;64049;46.290;44.240;2023-03-16T12:50:48;75.85;;;9.02;;
75465;SDS011;64049;46.290;44.240;2023-03-16T12:53:26;68.15;;;9.55;;
75465;SDS011;64049;46.290;44.240;2023-03-16T12:56:12;58.05;;;8.38;;
75465;SDS011;64049;46.290;44.240;2023-03-16T12:58:44;62.63;;;8.73;;
75465;SDS011;64049;46.290;44.240;2023-03-16T13:01:12;59.30;;;7.60;;
75465;SDS011;64049;46.290;44.240;2023-03-16T13:03:41;74.88;;;9.85;;
75465;SDS011;64049;46.290;44.240;2023-03-16T13:08:46;60.15;;;8.60;;
75465;SDS011;64049;46.290;44.240;2023-03-16T13:11:16;62.50;;;10.60;;
75465;SDS011;64049;46.290;44.240;2023-03-16T13:13:50;54.35;;;11.45;;
75465;SDS011;64049;46.290;44.240;2023-03-16T13:16:30;69.03;;;8.35;;
75465;SDS011;64049;46.290;44.240;2023-03-16T13:18:57;57.97;;;8.63;;
75465;SDS011;64049;46.290;44.240;2023-03-16T13:21:37;53.35;;;6.75;;
75465;SDS011;64049;46.290;44.240;2023-03-16T13:26:49;76.65;;;9.40;;
75465;SDS011;64049;46.290;44.240;2023-03-16T13:31:52;58.30;;;8.20;;
75465;SDS011;64049;46.290;44.240;2023-03-16T13:34:26;51.42;;;7.75;;
75465;SDS011;64049;46.290;44.240;2023-03-16T13:36:55;66.00;;;7.22;;
75465;SDS011;64049;46.290;44.240;2023-03-16T13:39:24;52.38;;;8.27;;
75465;SDS011;64049;46.290;44.240;2023-03-16T13:42:08;53.47;;;7.68;;
75465;SDS011;64049;46.290;44.240;2023-03-16T13:44:41;67.97;;;9.40;;
75465;SDS011;64049;46.290;44.240;2023-03-16T13:47:17;47.22;;;7.55;;
75465;SDS011;64049;46.290;44.240;2023-03-16T13:49:45;52.92;;;7.30;;
75465;SDS011;64049;46.290;44.240;2023-03-16T13:52:29;58.90;;;8.70;;
75465;SDS011;64049;46.290;44.240;2023-03-16T13:55:00;60.17;;;9.13;;
75465;SDS011;64049;46.290;44.240;2023-03-16T13:57:31;55.90;;;9.15;;
75465;SDS011;64049;46.290;44.240;2023-03-16T14:02:51;74.72;;;8.45;;
75465;SDS011;64049;46.290;44.240;2023-03-16T14:05:26;62.35;;;8.45;;
75465;SDS011;64049;46.290;44.240;2023-03-16T14:07:55;68.82;;;8.27;;
75465;SDS011;64049;46.290;44.240;2023-03-16T14:10:21;54.85;;;6.22;;
75465;SDS011;64049;46.290;44.240;2023-03-16T14:12:54;50.83;;;6.40;;
75465;SDS011;64049;46.290;44.240;2023-03-16T14:15:26;58.08;;;9.48;;
75465;SDS011;64049;46.290;44.240;2023-03-16T14:17:54;52.00;;;7.93;;
75465;SDS011;64049;46.290;44.240;2023-03-16T14:20:39;47.70;;;6.82;;
75465;SDS011;64049;46.290;44.240;2023-03-16T14:23:14;55.17;;;8.77;;
75465;SDS011;64049;46.290;44.240;2023-03-16T14:25:42;60.17;;;7.68;;
75465;SDS011;64049;46.290;44.240;2023-03-16T14:28:12;48.72;;;8.02;;
75465;SDS011;64049;46.290;44.240;2023-03-16T14:30:48;46.33;;;6.72;;
75465;SDS011;64049;46.290;44.240;2023-03-16T14:33:34;46.15;;;7.72;;
75465;SDS011;64049;46.290;44.240;2023-03-16T14:36:11;59.78;;;8.73;;
75465;SDS011;64049;46.290;44.240;2023-03-16T14:38:39;61.08;;;6.85;;
75465;SDS011;64049;46.290;44.240;2023-03-16T14:41:12;62.05;;;7.45;;
75465;SDS011;64049;46.290;44.240;2023-03-16T14:43:49;49.03;;;5.97;;
75465;SDS011;64049;46.290;44.240;2023-03-16T14:46:27;43.67;;;7.43;;
75465;SDS011;64049;46.290;44.240;2023-03-16T14:49:02;51.05;;;8.45;;
75465;SDS011;64049;46.290;44.240;2023-03-16T14:51:45;54.30;;;9.82;;
75465;SDS011;64049;46.290;44.240;2023-03-16T14:54:14;49.63;;;7.70;;
75465;SDS011;64049;46.290;44.240;2023-03-16T14:56:54;58.03;;;7.93;;
75465;SDS011;64049;46.290;44.240;2023-03-16T14:59:25;48.72;;;6.80;;
75465;SDS011;64049;46.290;44.240;2023-03-16T15:01:51;55.55;;;7.95;;
75465;SDS011;64049;46.290;44.240;2023-03-16T15:04:26;47.85;;;7.25;;
75465;SDS011;64049;46.290;44.240;2023-03-16T15:06:56;58.72;;;7.43;;
75465;SDS011;64049;46.290;44.240;2023-03-16T15:09:35;50.83;;;6.13;;
75465;SDS011;64049;46.290;44.240;2023-03-16T15:12:10;52.65;;;6.28;;
75465;SDS011;64049;46.290;44.240;2023-03-16T15:14:42;52.28;;;9.45;;
75465;SDS011;64049;46.290;44.240;2023-03-16T15:17:27;51.10;;;7.22;;
75465;SDS011;64049;46.290;44.240;2023-03-16T15:19:53;49.17;;;8.73;;
75465;SDS011;64049;46.290;44.240;2023-03-16T15:22:40;60.95;;;7.55;;
75465;SDS011;64049;46.290;44.240;2023-03-16T15:30:17;48.65;;;6.53;;
75465;SDS011;64049;46.290;44.240;2023-03-16T15:32:48;48.17;;;8.30;;
75465;SDS011;64049;46.290;44.240;2023-03-16T15:35:14;50.47;;;6.97;;
75465;SDS011;64049;46.290;44.240;2023-03-16T15:37:40;49.47;;;6.50;;
75465;SDS011;64049;46.290;44.240;2023-03-16T15:40:20;48.75;;;6.65;;
75465;SDS011;64049;46.290;44.240;2023-03-16T15:42:48;40.33;;;5.68;;
75465;SDS011;64049;46.290;44.240;2023-03-16T15:45:15;62.08;;;8.43;;
75465;SDS011;64049;46.290;44.240;2023-03-16T15:47:48;49.65;;;7.03;;
75465;SDS011;64049;46.290;44.240;2023-03-16T15:50:19;63.35;;;8.18;;
75465;SDS011;64049;46.290;44.240;2023-03-16T15:52:53;48.03;;;7.38;;
75465;SDS011;64049;46.290;44.240;2023-03-16T15:55:29;53.78;;;7.47;;
75465;SDS011;64049;46.290;44.240;2023-03-16T15:58:00;36.78;;;5.50;;
75465;SDS011;64049;46.290;44.240;2023-03-16T16:00:28;43.42;;;6.70;;
75465;SDS011;64049;46.290;44.240;2023-03-16T16:02:57;66.22;;;8.60;;
75465;SDS011;64049;46.290;44.240;2023-03-16T16:05:24;53.90;;;6.53;;
75465;SDS011;64049;46.290;44.240;2023-03-16T16:07:51;54.15;;;7.15;;
75465;SDS011;64049;46.290;44.240;2023-03-16T16:10:18;42.85;;;5.47;;
75465;SDS011;64049;46.290;44.240;2023-03-16T16:12:44;43.03;;;5.72;;